sensor_id;sensor_type;location;lat;lon;timestamp;P1;durP1;ratioP1;P2;durP2;ratioP2
41039;SDS011;48586;50.122;18.972;2022-10-30T00:00:22;34.05;;;20.65;;
41039;SDS011;48586;50.122;18.972;2022-10-30T00:03:24;39.60;;;22.13;;
41039;SDS011;48586;50.122;18.972;2022-10-30T00:06:27;33.50;;;21.42;;
41039;SDS011;48586;50.122;18.972;2022-10-30T00:09:29;33.80;;;21.48;;
41039;SDS011;48586;50.122;18.972;2022-10-30T00:12:32;36.97;;;20.50;;
41039;SDS011;48586;50.122;18.972;2022-10-30T00:15:34;37.20;;;20.95;;
41039;SDS011;48586;50.122;18.972;2022-10-30T00:18:37;36.55;;;20.38;;
41039;SDS011;48586;50.122;18.972;2022-10-30T00:21:41;35.60;;;20.30;;
41039;SDS011;48586;50.122;18.972;2022-10-30T00:24:43;34.78;;;21.80;;
41039;SDS011;48586;50.122;18.972;2022-10-30T00:27:47;34.17;;;21.10;;
41039;SDS011;48586;50.122;18.972;2022-10-30T00:30:49;32.80;;;20.27;;
41039;SDS011;48586;50.122;18.972;2022-10-30T00:33:52;34.08;;;21.13;;
41039;SDS011;48586;50.122;18.972;2022-10-30T00:36:55;34.27;;;21.20;;
41039;SDS011;48586;50.122;18.972;2022-10-30T00:39:57;36.28;;;21.20;;
41039;SDS011;48586;50.122;18.972;2022-10-30T00:43:00;37.88;;;20.35;;
41039;SDS011;48586;50.122;18.972;2022-10-30T00:46:04;38.30;;;21.65;;
41039;SDS011;48586;50.122;18.972;2022-10-30T00:49:13;37.35;;;22.05;;
41039;SDS011;48586;50.122;18.972;2022-10-30T00:52:17;41.85;;;25.08;;
41039;SDS011;48586;50.122;18.972;2022-10-30T00:55:23;38.55;;;23.40;;
41039;SDS011;48586;50.122;18.972;2022-10-30T00:58:30;42.85;;;24.77;;
41039;SDS011;48586;50.122;18.972;2022-10-30T01:01:35;54.95;;;28.23;;
41039;SDS011;48586;50.122;18.972;2022-10-30T01:04:40;51.60;;;29.30;;
41039;SDS011;48586;50.122;18.972;2022-10-30T01:10:47;51.17;;;27.88;;
41039;SDS011;48586;50.122;18.972;2022-10-30T01:13:52;59.85;;;31.17;;
41039;SDS011;48586;50.122;18.972;2022-10-30T01:17:03;60.65;;;30.42;;
41039;SDS011;48586;50.122;18.972;2022-10-30T01:23:41;58.08;;;32.05;;
41039;SDS011;48586;50.122;18.972;2022-10-30T01:26:54;60.47;;;30.42;;
41039;SDS011;48586;50.122;18.972;2022-10-30T01:33:22;62.53;;;32.38;;
41039;SDS011;48586;50.122;18.972;2022-10-30T01:36:35;65.30;;;32.45;;
41039;SDS011;48586;50.122;18.972;2022-10-30T01:39:40;64.15;;;34.20;;
41039;SDS011;48586;50.122;18.972;2022-10-30T01:42:44;61.97;;;34.05;;
41039;SDS011;48586;50.122;18.972;2022-10-30T01:46:02;65.78;;;36.58;;
41039;SDS011;48586;50.122;18.972;2022-10-30T01:49:26;73.78;;;35.85;;
41039;SDS011;48586;50.122;18.972;2022-10-30T01:52:41;71.30;;;36.72;;
41039;SDS011;48586;50.122;18.972;2022-10-30T01:55:52;72.43;;;38.17;;
41039;SDS011;48586;50.122;18.972;2022-10-30T01:59:00;70.55;;;36.78;;
41039;SDS011;48586;50.122;18.972;2022-10-30T02:02:10;68.50;;;37.45;;
41039;SDS011;48586;50.122;18.972;2022-10-30T02:05:14;72.57;;;38.42;;
41039;SDS011;48586;50.122;18.972;2022-10-30T02:08:22;77.18;;;39.15;;
41039;SDS011;48586;50.122;18.972;2022-10-30T02:11:27;69.85;;;35.88;;
41039;SDS011;48586;50.122;18.972;2022-10-30T02:14:33;71.55;;;38.67;;
41039;SDS011;48586;50.122;18.972;2022-10-30T02:17:41;70.88;;;38.80;;
41039;SDS011;48586;50.122;18.972;2022-10-30T02:20:44;73.88;;;38.28;;
41039;SDS011;48586;50.122;18.972;2022-10-30T02:23:47;75.40;;;39.58;;
41039;SDS011;48586;50.122;18.972;2022-10-30T02:26:49;80.82;;;39.90;;
41039;SDS011;48586;50.122;18.972;2022-10-30T02:29:51;80.82;;;40.53;;
41039;SDS011;48586;50.122;18.972;2022-10-30T02:32:53;75.50;;;40.92;;
41039;SDS011;48586;50.122;18.972;2022-10-30T02:35:56;73.85;;;38.95;;
41039;SDS011;48586;50.122;18.972;2022-10-30T02:38:58;75.00;;;38.78;;
41039;SDS011;48586;50.122;18.972;2022-10-30T02:42:00;74.28;;;38.03;;
41039;SDS011;48586;50.122;18.972;2022-10-30T02:45:02;79.47;;;39.42;;
41039;SDS011;48586;50.122;18.972;2022-10-30T02:48:04;74.15;;;38.65;;
41039;SDS011;48586;50.122;18.972;2022-10-30T02:51:07;69.78;;;40.13;;
41039;SDS011;48586;50.122;18.972;2022-10-30T02:54:12;73.60;;;38.30;;
41039;SDS011;48586;50.122;18.972;2022-10-30T02:57:14;74.95;;;38.25;;
41039;SDS011;48586;50.122;18.972;2022-10-30T03:00:16;78.20;;;38.80;;
41039;SDS011;48586;50.122;18.972;2022-10-30T03:03:17;72.38;;;37.92;;
41039;SDS011;48586;50.122;18.972;2022-10-30T03:06:21;73.22;;;36.83;;
41039;SDS011;48586;50.122;18.972;2022-10-30T03:09:24;74.05;;;37.80;;
41039;SDS011;48586;50.122;18.972;2022-10-30T03:12:25;69.68;;;36.75;;
41039;SDS011;48586;50.122;18.972;2022-10-30T03:15:27;72.93;;;37.92;;
41039;SDS011;48586;50.122;18.972;2022-10-30T03:18:29;71.20;;;36.38;;
41039;SDS011;48586;50.122;18.972;2022-10-30T03:21:36;73.80;;;36.50;;
41039;SDS011;48586;50.122;18.972;2022-10-30T03:24:38;74.50;;;36.40;;
41039;SDS011;48586;50.122;18.972;2022-10-30T03:27:40;78.93;;;37.78;;
41039;SDS011;48586;50.122;18.972;2022-10-30T03:30:42;76.40;;;35.60;;
41039;SDS011;48586;50.122;18.972;2022-10-30T03:33:43;73.05;;;37.10;;
41039;SDS011;48586;50.122;18.972;2022-10-30T03:36:47;78.20;;;37.83;;
41039;SDS011;48586;50.122;18.972;2022-10-30T03:39:49;73.57;;;37.15;;
41039;SDS011;48586;50.122;18.972;2022-10-30T03:42:54;73.40;;;37.20;;
41039;SDS011;48586;50.122;18.972;2022-10-30T03:45:57;71.05;;;38.13;;
41039;SDS011;48586;50.122;18.972;2022-10-30T03:48:58;69.22;;;36.47;;
41039;SDS011;48586;50.122;18.972;2022-10-30T03:52:02;72.22;;;36.00;;
41039;SDS011;48586;50.122;18.972;2022-10-30T03:55:05;71.82;;;36.90;;
41039;SDS011;48586;50.122;18.972;2022-10-30T03:58:09;71.07;;;37.90;;
41039;SDS011;48586;50.122;18.972;2022-10-30T04:01:11;73.10;;;37.22;;
41039;SDS011;48586;50.122;18.972;2022-10-30T04:04:16;68.38;;;35.28;;
41039;SDS011;48586;50.122;18.972;2022-10-30T04:07:20;68.63;;;35.90;;
41039;SDS011;48586;50.122;18.972;2022-10-30T04:10:21;64.40;;;34.38;;
41039;SDS011;48586;50.122;18.972;2022-10-30T04:13:23;64.95;;;34.20;;
41039;SDS011;48586;50.122;18.972;2022-10-30T04:16:27;62.05;;;34.45;;
41039;SDS011;48586;50.122;18.972;2022-10-30T04:19:30;68.18;;;33.55;;
41039;SDS011;48586;50.122;18.972;2022-10-30T04:22:34;73.68;;;35.72;;
41039;SDS011;48586;50.122;18.972;2022-10-30T04:25:36;68.30;;;34.72;;
41039;SDS011;48586;50.122;18.972;2022-10-30T04:28:37;66.07;;;35.33;;
41039;SDS011;48586;50.122;18.972;2022-10-30T04:31:39;64.97;;;31.92;;
41039;SDS011;48586;50.122;18.972;2022-10-30T04:34:41;57.03;;;31.95;;
41039;SDS011;48586;50.122;18.972;2022-10-30T04:37:49;59.33;;;31.98;;
41039;SDS011;48586;50.122;18.972;2022-10-30T04:40:52;56.22;;;32.10;;
41039;SDS011;48586;50.122;18.972;2022-10-30T04:43:54;61.58;;;33.03;;
41039;SDS011;48586;50.122;18.972;2022-10-30T04:46:56;56.95;;;32.53;;
41039;SDS011;48586;50.122;18.972;2022-10-30T04:49:58;68.18;;;33.78;;
41039;SDS011;48586;50.122;18.972;2022-10-30T04:53:02;61.63;;;32.22;;
41039;SDS011;48586;50.122;18.972;2022-10-30T04:56:06;63.88;;;33.58;;
41039;SDS011;48586;50.122;18.972;2022-10-30T04:59:08;67.22;;;33.17;;
41039;SDS011;48586;50.122;18.972;2022-10-30T05:02:10;69.95;;;35.65;;
41039;SDS011;48586;50.122;18.972;2022-10-30T05:05:12;67.78;;;35.10;;
41039;SDS011;48586;50.122;18.972;2022-10-30T05:08:15;73.53;;;34.88;;
41039;SDS011;48586;50.122;18.972;2022-10-30T05:11:17;67.70;;;35.03;;
41039;SDS011;48586;50.122;18.972;2022-10-30T05:14:20;69.70;;;34.22;;
41039;SDS011;48586;50.122;18.972;2022-10-30T05:17:22;72.65;;;34.80;;
41039;SDS011;48586;50.122;18.972;2022-10-30T05:20:24;72.55;;;35.28;;
41039;SDS011;48586;50.122;18.972;2022-10-30T05:23:27;71.32;;;35.10;;
41039;SDS011;48586;50.122;18.972;2022-10-30T05:26:30;67.47;;;35.08;;
41039;SDS011;48586;50.122;18.972;2022-10-30T05:29:31;73.20;;;34.90;;
41039;SDS011;48586;50.122;18.972;2022-10-30T05:32:33;65.13;;;33.28;;
41039;SDS011;48586;50.122;18.972;2022-10-30T05:35:35;61.33;;;33.35;;
41039;SDS011;48586;50.122;18.972;2022-10-30T05:38:40;61.55;;;32.58;;
41039;SDS011;48586;50.122;18.972;2022-10-30T05:41:46;60.55;;;31.73;;
41039;SDS011;48586;50.122;18.972;2022-10-30T05:44:48;65.55;;;32.58;;
41039;SDS011;48586;50.122;18.972;2022-10-30T05:47:54;69.53;;;33.53;;
41039;SDS011;48586;50.122;18.972;2022-10-30T05:50:56;64.63;;;32.13;;
41039;SDS011;48586;50.122;18.972;2022-10-30T05:54:03;61.70;;;32.40;;
41039;SDS011;48586;50.122;18.972;2022-10-30T05:57:07;54.05;;;29.73;;
41039;SDS011;48586;50.122;18.972;2022-10-30T06:00:11;59.00;;;31.13;;
41039;SDS011;48586;50.122;18.972;2022-10-30T06:03:16;62.63;;;31.88;;
41039;SDS011;48586;50.122;18.972;2022-10-30T06:06:19;59.90;;;30.25;;
41039;SDS011;48586;50.122;18.972;2022-10-30T06:09:22;58.80;;;30.35;;
41039;SDS011;48586;50.122;18.972;2022-10-30T06:12:50;58.97;;;31.02;;
41039;SDS011;48586;50.122;18.972;2022-10-30T06:16:08;61.72;;;31.48;;
41039;SDS011;48586;50.122;18.972;2022-10-30T06:19:28;57.17;;;31.13;;
41039;SDS011;48586;50.122;18.972;2022-10-30T06:22:46;52.55;;;29.83;;
41039;SDS011;48586;50.122;18.972;2022-10-30T06:25:55;56.05;;;29.02;;
41039;SDS011;48586;50.122;18.972;2022-10-30T06:29:04;60.08;;;30.85;;
41039;SDS011;48586;50.122;18.972;2022-10-30T06:32:06;56.28;;;29.60;;
41039;SDS011;48586;50.122;18.972;2022-10-30T06:35:09;56.88;;;28.65;;
41039;SDS011;48586;50.122;18.972;2022-10-30T06:38:11;49.45;;;28.13;;
41039;SDS011;48586;50.122;18.972;2022-10-30T06:41:16;52.10;;;28.42;;
41039;SDS011;48586;50.122;18.972;2022-10-30T06:44:31;53.78;;;28.60;;
41039;SDS011;48586;50.122;18.972;2022-10-30T06:47:33;56.30;;;28.90;;
41039;SDS011;48586;50.122;18.972;2022-10-30T06:50:35;51.63;;;27.30;;
41039;SDS011;48586;50.122;18.972;2022-10-30T06:53:37;50.58;;;26.98;;
41039;SDS011;48586;50.122;18.972;2022-10-30T06:56:59;55.92;;;26.83;;
41039;SDS011;48586;50.122;18.972;2022-10-30T07:00:16;50.38;;;26.92;;
41039;SDS011;48586;50.122;18.972;2022-10-30T07:03:37;76.22;;;39.58;;
41039;SDS011;48586;50.122;18.972;2022-10-30T07:06:38;51.65;;;26.83;;
41039;SDS011;48586;50.122;18.972;2022-10-30T07:09:40;46.08;;;25.08;;
41039;SDS011;48586;50.122;18.972;2022-10-30T07:12:49;46.42;;;24.02;;
41039;SDS011;48586;50.122;18.972;2022-10-30T07:16:06;47.35;;;24.45;;
41039;SDS011;48586;50.122;18.972;2022-10-30T07:19:12;38.78;;;21.83;;
41039;SDS011;48586;50.122;18.972;2022-10-30T07:22:14;37.63;;;21.63;;
41039;SDS011;48586;50.122;18.972;2022-10-30T07:25:20;38.03;;;21.00;;
41039;SDS011;48586;50.122;18.972;2022-10-30T07:28:31;44.92;;;24.95;;
41039;SDS011;48586;50.122;18.972;2022-10-30T07:31:58;33.83;;;19.35;;
41039;SDS011;48586;50.122;18.972;2022-10-30T07:35:19;36.13;;;20.35;;
41039;SDS011;48586;50.122;18.972;2022-10-30T07:38:39;33.53;;;19.92;;
41039;SDS011;48586;50.122;18.972;2022-10-30T07:41:55;34.88;;;19.60;;
41039;SDS011;48586;50.122;18.972;2022-10-30T07:45:32;33.70;;;19.42;;
41039;SDS011;48586;50.122;18.972;2022-10-30T07:48:54;39.40;;;19.80;;
41039;SDS011;48586;50.122;18.972;2022-10-30T07:52:14;32.83;;;18.60;;
41039;SDS011;48586;50.122;18.972;2022-10-30T07:55:16;33.03;;;19.00;;
41039;SDS011;48586;50.122;18.972;2022-10-30T07:58:36;35.90;;;17.80;;
41039;SDS011;48586;50.122;18.972;2022-10-30T08:01:58;33.92;;;20.70;;
41039;SDS011;48586;50.122;18.972;2022-10-30T08:05:19;37.70;;;17.70;;
41039;SDS011;48586;50.122;18.972;2022-10-30T08:08:39;34.58;;;17.75;;
41039;SDS011;48586;50.122;18.972;2022-10-30T08:11:53;33.85;;;17.10;;
41039;SDS011;48586;50.122;18.972;2022-10-30T08:14:55;30.30;;;16.17;;
41039;SDS011;48586;50.122;18.972;2022-10-30T08:17:59;28.80;;;16.02;;
41039;SDS011;48586;50.122;18.972;2022-10-30T08:21:01;29.02;;;15.75;;
41039;SDS011;48586;50.122;18.972;2022-10-30T08:24:04;27.23;;;14.20;;
41039;SDS011;48586;50.122;18.972;2022-10-30T08:27:08;20.60;;;13.23;;
41039;SDS011;48586;50.122;18.972;2022-10-30T08:30:11;25.15;;;14.40;;
41039;SDS011;48586;50.122;18.972;2022-10-30T08:33:15;28.58;;;13.20;;
41039;SDS011;48586;50.122;18.972;2022-10-30T08:36:52;21.15;;;12.20;;
41039;SDS011;48586;50.122;18.972;2022-10-30T08:39:55;21.30;;;12.05;;
41039;SDS011;48586;50.122;18.972;2022-10-30T08:43:11;20.65;;;11.30;;
41039;SDS011;48586;50.122;18.972;2022-10-30T08:46:13;20.75;;;9.60;;
41039;SDS011;48586;50.122;18.972;2022-10-30T08:49:17;20.83;;;9.57;;
41039;SDS011;48586;50.122;18.972;2022-10-30T08:52:25;20.55;;;9.75;;
41039;SDS011;48586;50.122;18.972;2022-10-30T08:55:31;17.20;;;9.52;;
41039;SDS011;48586;50.122;18.972;2022-10-30T08:58:36;16.75;;;9.15;;
41039;SDS011;48586;50.122;18.972;2022-10-30T09:01:38;18.38;;;9.13;;
41039;SDS011;48586;50.122;18.972;2022-10-30T09:04:54;15.45;;;8.38;;
41039;SDS011;48586;50.122;18.972;2022-10-30T09:08:22;22.88;;;8.95;;
41039;SDS011;48586;50.122;18.972;2022-10-30T09:11:27;12.30;;;8.55;;
41039;SDS011;48586;50.122;18.972;2022-10-30T09:14:32;18.60;;;8.27;;
41039;SDS011;48586;50.122;18.972;2022-10-30T09:17:34;18.13;;;8.68;;
41039;SDS011;48586;50.122;18.972;2022-10-30T09:20:37;16.65;;;8.35;;
41039;SDS011;48586;50.122;18.972;2022-10-30T09:23:41;15.75;;;7.60;;
41039;SDS011;48586;50.122;18.972;2022-10-30T09:27:02;14.60;;;7.10;;
41039;SDS011;48586;50.122;18.972;2022-10-30T09:30:10;15.57;;;8.35;;
41039;SDS011;48586;50.122;18.972;2022-10-30T09:33:17;15.65;;;8.07;;
41039;SDS011;48586;50.122;18.972;2022-10-30T09:36:47;14.98;;;7.78;;
41039;SDS011;48586;50.122;18.972;2022-10-30T09:39:51;14.05;;;7.57;;
41039;SDS011;48586;50.122;18.972;2022-10-30T09:42:56;17.13;;;7.68;;
41039;SDS011;48586;50.122;18.972;2022-10-30T09:46:21;16.23;;;7.40;;
41039;SDS011;48586;50.122;18.972;2022-10-30T09:49:37;15.60;;;7.63;;
41039;SDS011;48586;50.122;18.972;2022-10-30T09:52:56;15.75;;;7.53;;
41039;SDS011;48586;50.122;18.972;2022-10-30T09:56:05;14.90;;;7.30;;
41039;SDS011;48586;50.122;18.972;2022-10-30T09:59:12;19.20;;;7.10;;
41039;SDS011;48586;50.122;18.972;2022-10-30T10:02:27;15.40;;;6.90;;
41039;SDS011;48586;50.122;18.972;2022-10-30T10:05:37;15.80;;;7.50;;
41039;SDS011;48586;50.122;18.972;2022-10-30T10:09:18;12.43;;;6.72;;
41039;SDS011;48586;50.122;18.972;2022-10-30T10:12:47;18.77;;;7.28;;
41039;SDS011;48586;50.122;18.972;2022-10-30T10:15:53;18.02;;;7.05;;
41039;SDS011;48586;50.122;18.972;2022-10-30T10:18:59;14.77;;;7.55;;
41039;SDS011;48586;50.122;18.972;2022-10-30T10:22:12;15.75;;;7.47;;
41039;SDS011;48586;50.122;18.972;2022-10-30T10:25:21;17.23;;;8.18;;
41039;SDS011;48586;50.122;18.972;2022-10-30T10:28:40;19.10;;;8.70;;
41039;SDS011;48586;50.122;18.972;2022-10-30T10:35:02;11.93;;;6.90;;
41039;SDS011;48586;50.122;18.972;2022-10-30T10:38:31;16.00;;;7.25;;
41039;SDS011;48586;50.122;18.972;2022-10-30T10:41:48;14.43;;;7.55;;
41039;SDS011;48586;50.122;18.972;2022-10-30T10:45:02;16.77;;;7.45;;
41039;SDS011;48586;50.122;18.972;2022-10-30T10:48:22;13.07;;;7.32;;
41039;SDS011;48586;50.122;18.972;2022-10-30T10:51:41;15.73;;;7.20;;
41039;SDS011;48586;50.122;18.972;2022-10-30T10:54:48;24.23;;;7.30;;
41039;SDS011;48586;50.122;18.972;2022-10-30T10:57:56;18.23;;;7.07;;
41039;SDS011;48586;50.122;18.972;2022-10-30T11:01:00;16.27;;;6.97;;
41039;SDS011;48586;50.122;18.972;2022-10-30T11:04:04;15.93;;;6.63;;
41039;SDS011;48586;50.122;18.972;2022-10-30T11:07:20;13.88;;;5.97;;
41039;SDS011;48586;50.122;18.972;2022-10-30T11:10:24;13.13;;;5.53;;
41039;SDS011;48586;50.122;18.972;2022-10-30T11:13:28;20.10;;;6.18;;
41039;SDS011;48586;50.122;18.972;2022-10-30T11:16:33;14.05;;;6.30;;
41039;SDS011;48586;50.122;18.972;2022-10-30T11:19:42;14.80;;;5.90;;
41039;SDS011;48586;50.122;18.972;2022-10-30T11:22:45;18.38;;;6.90;;
41039;SDS011;48586;50.122;18.972;2022-10-30T11:25:51;15.13;;;5.38;;
41039;SDS011;48586;50.122;18.972;2022-10-30T11:28:55;14.40;;;5.35;;
41039;SDS011;48586;50.122;18.972;2022-10-30T11:32:00;18.77;;;5.70;;
41039;SDS011;48586;50.122;18.972;2022-10-30T11:35:10;15.60;;;5.53;;
41039;SDS011;48586;50.122;18.972;2022-10-30T11:38:17;12.43;;;5.78;;
41039;SDS011;48586;50.122;18.972;2022-10-30T11:41:20;19.65;;;6.60;;
41039;SDS011;48586;50.122;18.972;2022-10-30T11:44:24;16.20;;;6.00;;
41039;SDS011;48586;50.122;18.972;2022-10-30T11:47:30;16.90;;;6.35;;
41039;SDS011;48586;50.122;18.972;2022-10-30T11:50:34;13.57;;;6.50;;
41039;SDS011;48586;50.122;18.972;2022-10-30T11:53:38;17.65;;;6.25;;
41039;SDS011;48586;50.122;18.972;2022-10-30T11:56:45;15.00;;;6.18;;
41039;SDS011;48586;50.122;18.972;2022-10-30T11:59:50;18.90;;;6.95;;
41039;SDS011;48586;50.122;18.972;2022-10-30T12:02:56;14.18;;;7.45;;
41039;SDS011;48586;50.122;18.972;2022-10-30T12:06:06;12.02;;;6.38;;
41039;SDS011;48586;50.122;18.972;2022-10-30T12:09:10;14.32;;;6.72;;
41039;SDS011;48586;50.122;18.972;2022-10-30T12:12:18;15.82;;;7.55;;
41039;SDS011;48586;50.122;18.972;2022-10-30T12:15:25;15.73;;;7.65;;
41039;SDS011;48586;50.122;18.972;2022-10-30T12:18:27;22.75;;;8.10;;
41039;SDS011;48586;50.122;18.972;2022-10-30T12:21:35;17.13;;;7.78;;
41039;SDS011;48586;50.122;18.972;2022-10-30T12:24:41;20.52;;;7.78;;
41039;SDS011;48586;50.122;18.972;2022-10-30T12:27:45;18.05;;;7.45;;
41039;SDS011;48586;50.122;18.972;2022-10-30T12:30:50;19.10;;;8.45;;
41039;SDS011;48586;50.122;18.972;2022-10-30T12:33:57;18.30;;;8.45;;
41039;SDS011;48586;50.122;18.972;2022-10-30T12:40:15;20.98;;;8.23;;
41039;SDS011;48586;50.122;18.972;2022-10-30T12:43:22;24.38;;;8.45;;
41039;SDS011;48586;50.122;18.972;2022-10-30T12:46:31;14.50;;;7.50;;
41039;SDS011;48586;50.122;18.972;2022-10-30T12:49:39;20.33;;;8.48;;
41039;SDS011;48586;50.122;18.972;2022-10-30T12:52:44;17.23;;;8.85;;
41039;SDS011;48586;50.122;18.972;2022-10-30T12:55:51;20.15;;;9.02;;
41039;SDS011;48586;50.122;18.972;2022-10-30T12:59:02;19.35;;;9.05;;
41039;SDS011;48586;50.122;18.972;2022-10-30T13:02:22;23.35;;;10.40;;
41039;SDS011;48586;50.122;18.972;2022-10-30T13:05:32;19.65;;;9.02;;
41039;SDS011;48586;50.122;18.972;2022-10-30T13:08:38;17.60;;;8.35;;
41039;SDS011;48586;50.122;18.972;2022-10-30T13:11:48;23.58;;;8.32;;
41039;SDS011;48586;50.122;18.972;2022-10-30T13:14:54;18.35;;;8.20;;
41039;SDS011;48586;50.122;18.972;2022-10-30T13:18:05;24.42;;;9.25;;
41039;SDS011;48586;50.122;18.972;2022-10-30T13:21:17;17.80;;;9.23;;
41039;SDS011;48586;50.122;18.972;2022-10-30T13:24:24;19.65;;;8.90;;
41039;SDS011;48586;50.122;18.972;2022-10-30T13:27:35;20.20;;;9.57;;
41039;SDS011;48586;50.122;18.972;2022-10-30T13:30:49;21.33;;;9.02;;
41039;SDS011;48586;50.122;18.972;2022-10-30T13:34:02;20.02;;;9.20;;
41039;SDS011;48586;50.122;18.972;2022-10-30T13:37:13;21.95;;;9.18;;
41039;SDS011;48586;50.122;18.972;2022-10-30T13:40:19;20.27;;;9.27;;
41039;SDS011;48586;50.122;18.972;2022-10-30T13:43:31;18.85;;;8.57;;
41039;SDS011;48586;50.122;18.972;2022-10-30T13:46:48;20.50;;;8.73;;
41039;SDS011;48586;50.122;18.972;2022-10-30T13:50:07;19.90;;;9.48;;
41039;SDS011;48586;50.122;18.972;2022-10-30T13:53:22;19.70;;;8.48;;
41039;SDS011;48586;50.122;18.972;2022-10-30T13:56:27;17.77;;;8.38;;
41039;SDS011;48586;50.122;18.972;2022-10-30T13:59:42;18.92;;;8.27;;
41039;SDS011;48586;50.122;18.972;2022-10-30T14:02:59;24.10;;;10.32;;
41039;SDS011;48586;50.122;18.972;2022-10-30T14:06:15;20.83;;;8.52;;
41039;SDS011;48586;50.122;18.972;2022-10-30T14:09:26;21.40;;;8.80;;
41039;SDS011;48586;50.122;18.972;2022-10-30T14:12:43;21.27;;;8.50;;
41039;SDS011;48586;50.122;18.972;2022-10-30T14:15:46;18.60;;;8.95;;
41039;SDS011;48586;50.122;18.972;2022-10-30T14:18:59;24.15;;;8.75;;
41039;SDS011;48586;50.122;18.972;2022-10-30T14:22:03;18.92;;;9.23;;
41039;SDS011;48586;50.122;18.972;2022-10-30T14:25:23;17.80;;;9.50;;
41039;SDS011;48586;50.122;18.972;2022-10-30T14:28:26;21.98;;;9.38;;
41039;SDS011;48586;50.122;18.972;2022-10-30T14:31:31;19.23;;;9.27;;
41039;SDS011;48586;50.122;18.972;2022-10-30T14:34:39;20.02;;;8.70;;
41039;SDS011;48586;50.122;18.972;2022-10-30T14:37:54;18.15;;;8.90;;
41039;SDS011;48586;50.122;18.972;2022-10-30T14:41:14;19.02;;;9.07;;
41039;SDS011;48586;50.122;18.972;2022-10-30T14:44:25;25.50;;;9.70;;
41039;SDS011;48586;50.122;18.972;2022-10-30T14:47:52;20.42;;;9.05;;
41039;SDS011;48586;50.122;18.972;2022-10-30T14:51:01;16.52;;;8.93;;
41039;SDS011;48586;50.122;18.972;2022-10-30T14:54:18;24.25;;;9.10;;
41039;SDS011;48586;50.122;18.972;2022-10-30T15:00:47;20.00;;;9.00;;
41039;SDS011;48586;50.122;18.972;2022-10-30T15:03:51;15.52;;;8.15;;
41039;SDS011;48586;50.122;18.972;2022-10-30T15:07:05;17.05;;;8.40;;
41039;SDS011;48586;50.122;18.972;2022-10-30T15:10:17;16.52;;;7.80;;
41039;SDS011;48586;50.122;18.972;2022-10-30T15:13:26;17.67;;;8.27;;
41039;SDS011;48586;50.122;18.972;2022-10-30T15:16:29;15.30;;;7.80;;
41039;SDS011;48586;50.122;18.972;2022-10-30T15:19:34;15.60;;;8.65;;
41039;SDS011;48586;50.122;18.972;2022-10-30T15:22:36;20.23;;;8.73;;
41039;SDS011;48586;50.122;18.972;2022-10-30T15:25:43;20.45;;;10.25;;
41039;SDS011;48586;50.122;18.972;2022-10-30T15:28:48;16.50;;;8.80;;
41039;SDS011;48586;50.122;18.972;2022-10-30T15:31:58;16.47;;;9.47;;
41039;SDS011;48586;50.122;18.972;2022-10-30T15:35:03;17.33;;;9.57;;
41039;SDS011;48586;50.122;18.972;2022-10-30T15:38:13;20.13;;;10.45;;
41039;SDS011;48586;50.122;18.972;2022-10-30T15:41:16;20.30;;;9.48;;
41039;SDS011;48586;50.122;18.972;2022-10-30T15:44:19;20.73;;;9.10;;
41039;SDS011;48586;50.122;18.972;2022-10-30T15:47:24;19.48;;;10.00;;
41039;SDS011;48586;50.122;18.972;2022-10-30T15:50:26;19.50;;;9.77;;
41039;SDS011;48586;50.122;18.972;2022-10-30T15:53:32;17.58;;;11.10;;
41039;SDS011;48586;50.122;18.972;2022-10-30T15:56:42;29.48;;;14.77;;
41039;SDS011;48586;50.122;18.972;2022-10-30T15:59:48;33.35;;;16.75;;
41039;SDS011;48586;50.122;18.972;2022-10-30T16:03:02;38.45;;;19.88;;
41039;SDS011;48586;50.122;18.972;2022-10-30T16:06:11;44.88;;;26.13;;
41039;SDS011;48586;50.122;18.972;2022-10-30T16:09:16;42.47;;;26.02;;
41039;SDS011;48586;50.122;18.972;2022-10-30T16:12:21;37.05;;;21.00;;
41039;SDS011;48586;50.122;18.972;2022-10-30T16:15:26;33.10;;;16.67;;
41039;SDS011;48586;50.122;18.972;2022-10-30T16:18:30;35.35;;;17.40;;
41039;SDS011;48586;50.122;18.972;2022-10-30T16:24:36;25.85;;;14.48;;
41039;SDS011;48586;50.122;18.972;2022-10-30T16:27:43;30.87;;;14.77;;
41039;SDS011;48586;50.122;18.972;2022-10-30T16:30:46;28.25;;;13.68;;
41039;SDS011;48586;50.122;18.972;2022-10-30T16:33:48;26.17;;;12.95;;
41039;SDS011;48586;50.122;18.972;2022-10-30T16:36:50;27.27;;;12.50;;
41039;SDS011;48586;50.122;18.972;2022-10-30T16:39:53;29.55;;;13.80;;
41039;SDS011;48586;50.122;18.972;2022-10-30T16:42:58;33.58;;;16.02;;
41039;SDS011;48586;50.122;18.972;2022-10-30T16:46:23;32.03;;;15.32;;
41039;SDS011;48586;50.122;18.972;2022-10-30T16:49:34;31.63;;;16.27;;
41039;SDS011;48586;50.122;18.972;2022-10-30T16:52:37;30.20;;;17.15;;
41039;SDS011;48586;50.122;18.972;2022-10-30T16:55:39;32.47;;;16.42;;
41039;SDS011;48586;50.122;18.972;2022-10-30T16:58:42;36.33;;;15.82;;
41039;SDS011;48586;50.122;18.972;2022-10-30T17:01:44;33.63;;;15.55;;
41039;SDS011;48586;50.122;18.972;2022-10-30T17:04:54;33.40;;;15.25;;
41039;SDS011;48586;50.122;18.972;2022-10-30T17:08:00;37.15;;;15.93;;
41039;SDS011;48586;50.122;18.972;2022-10-30T17:11:04;38.93;;;16.47;;
41039;SDS011;48586;50.122;18.972;2022-10-30T17:14:18;37.13;;;16.90;;
41039;SDS011;48586;50.122;18.972;2022-10-30T17:17:28;34.90;;;17.20;;
41039;SDS011;48586;50.122;18.972;2022-10-30T17:20:32;40.50;;;18.17;;
41039;SDS011;48586;50.122;18.972;2022-10-30T17:23:34;36.80;;;18.60;;
41039;SDS011;48586;50.122;18.972;2022-10-30T17:26:36;39.35;;;18.63;;
41039;SDS011;48586;50.122;18.972;2022-10-30T17:29:44;37.67;;;17.23;;
41039;SDS011;48586;50.122;18.972;2022-10-30T17:32:45;40.53;;;16.67;;
41039;SDS011;48586;50.122;18.972;2022-10-30T17:35:53;37.88;;;16.95;;
41039;SDS011;48586;50.122;18.972;2022-10-30T17:38:55;37.92;;;17.35;;
41039;SDS011;48586;50.122;18.972;2022-10-30T17:41:56;52.72;;;25.00;;
41039;SDS011;48586;50.122;18.972;2022-10-30T17:45:00;32.55;;;17.35;;
41039;SDS011;48586;50.122;18.972;2022-10-30T17:48:01;38.55;;;17.83;;
41039;SDS011;48586;50.122;18.972;2022-10-30T17:51:04;41.03;;;17.55;;
41039;SDS011;48586;50.122;18.972;2022-10-30T17:54:07;40.50;;;18.27;;
41039;SDS011;48586;50.122;18.972;2022-10-30T17:57:14;46.80;;;20.45;;
41039;SDS011;48586;50.122;18.972;2022-10-30T18:00:18;42.55;;;21.83;;
41039;SDS011;48586;50.122;18.972;2022-10-30T18:03:19;43.55;;;20.15;;
41039;SDS011;48586;50.122;18.972;2022-10-30T18:06:22;40.50;;;19.05;;
41039;SDS011;48586;50.122;18.972;2022-10-30T18:09:25;43.38;;;18.60;;
41039;SDS011;48586;50.122;18.972;2022-10-30T18:12:27;50.08;;;19.20;;
41039;SDS011;48586;50.122;18.972;2022-10-30T18:15:32;40.60;;;19.13;;
41039;SDS011;48586;50.122;18.972;2022-10-30T18:18:35;49.47;;;19.48;;
41039;SDS011;48586;50.122;18.972;2022-10-30T18:21:37;44.47;;;18.67;;
41039;SDS011;48586;50.122;18.972;2022-10-30T18:24:39;42.05;;;18.58;;
41039;SDS011;48586;50.122;18.972;2022-10-30T18:27:42;34.58;;;17.17;;